Home > Products > Valid Products > TAF

000
FTUS43 KABR 042300
TAFPIR
TAF
KPIR 042333Z 0500/0524 33010KT P6SM SKC
     FM050200 14005KT P6SM SKC
     FM051600 20015KT P6SM SKC=



000
FTUS43 KABR 042300
TAFABR
TAF
KABR 042333Z 0500/0524 34010KT P6SM SKC
     FM050200 VRB03KT P6SM SKC
     FM051400 19011KT P6SM SKC
     FM051800 20016G24KT P6SM SCT250=



000
FTUS43 KABR 042300
TAFATY
TAF
KATY 042333Z 0500/0524 33010KT P6SM SKC
     FM050400 VRB03KT P6SM SKC
     FM051600 19011KT P6SM SKC
     FM052000 20017G27KT P6SM SCT250=



000
FTUS43 KABR 042300
TAFMBG
TAF
KMBG 042333Z 0500/0524 34010KT P6SM SKC
     FM050200 13005KT P6SM SKC
     FM051600 19014KT P6SM SKC=



000
FTUS43 KABR 042300
TAFABR
TAF
KABR 042333Z 0500/0524 34010KT P6SM SKC
     FM050200 VRB03KT P6SM SKC
     FM051400 19011KT P6SM SKC
     FM051800 20016G24KT P6SM SCT250=



000
FTUS43 KABR 042300
TAFATY
TAF
KATY 042333Z 0500/0524 33010KT P6SM SKC
     FM050400 VRB03KT P6SM SKC
     FM051600 19011KT P6SM SKC
     FM052000 20017G27KT P6SM SCT250=



000
FTUS43 KABR 042300
TAFMBG
TAF
KMBG 042333Z 0500/0524 34010KT P6SM SKC
     FM050200 13005KT P6SM SKC
     FM051600 19014KT P6SM SKC=



000
FTUS43 KABR 042300
TAFPIR
TAF
KPIR 042333Z 0500/0524 33010KT P6SM SKC
     FM050200 14005KT P6SM SKC
     FM051600 20015KT P6SM SKC=



000
FTUS43 KABR 041700
TAFMBG
TAF
KMBG 041735Z 0418/0518 33013G23KT P6SM BKN035
     FM042300 33012KT P6SM SKC
     FM050300 VRB06KT P6SM SKC
     FM051400 19010KT P6SM SKC=



000
FTUS43 KABR 041700
TAFABR
TAF
KABR 041735Z 0418/0518 33018G25KT P6SM SKC
     FM042300 33012KT P6SM SKC
     FM050300 VRB06KT P6SM SKC
     FM051400 19010KT P6SM SKC=



000
FTUS43 KABR 041700
TAFATY
TAF
KATY 041735Z 0418/0518 33018G25KT P6SM BKN025
      TEMPO 0418/0420 5SM -SHSN BKN020
     FM042300 33012KT P6SM SKC
     FM050300 VRB06KT P6SM SKC
     FM051400 19010KT P6SM SKC=



000
FTUS43 KABR 041700
TAFPIR
TAF
KPIR 041735Z 0418/0518 32013G23KT P6SM BKN035
     FM042300 33012KT P6SM SKC
     FM050300 VRB06KT P6SM SKC
     FM051400 19010KT P6SM SKC=



000
FTUS43 KABR 041700
TAFMBG
TAF
KMBG 041735Z 0418/0518 33013G23KT P6SM BKN035
     FM042300 33012KT P6SM SKC
     FM050300 VRB06KT P6SM SKC
     FM051400 19010KT P6SM SKC=



000
FTUS43 KABR 041700
TAFATY
TAF
KATY 041735Z 0418/0518 33018G25KT P6SM BKN025
      TEMPO 0418/0420 5SM -SHSN BKN020
     FM042300 33012KT P6SM SKC
     FM050300 VRB06KT P6SM SKC
     FM051400 19010KT P6SM SKC=



000
FTUS43 KABR 041700
TAFABR
TAF
KABR 041735Z 0418/0518 33018G25KT P6SM SKC
     FM042300 33012KT P6SM SKC
     FM050300 VRB06KT P6SM SKC
     FM051400 19010KT P6SM SKC=



000
FTUS43 KABR 041700
TAFPIR
TAF
KPIR 041735Z 0418/0518 32013G23KT P6SM BKN035
     FM042300 33012KT P6SM SKC
     FM050300 VRB06KT P6SM SKC
     FM051400 19010KT P6SM SKC=



000
FTUS43 KABR 041500 AAB
TAFATY
TAF AMD
KATY 041558Z 0416/0512 33017G26KT P6SM BKN025
      TEMPO 0416/0419 3SM -SHRA BKN020
     FM042200 33017G26KT P6SM FEW030
     FM050000 32011KT P6SM SCT250=



000
FTUS43 KABR 041500 AAA
TAFABR
TAF AMD
KABR 041556Z 0416/0512 33018G25KT P6SM BKN035
      TEMPO 0416/0418 5SM -SHRA BKN030
     FM050000 31005KT P6SM SKC=



000
FTUS43 KABR 041300 AAC
TAFABR
TAF AMD
KABR 041319Z 0413/0512 30011KT P6SM SCT024
     FM041500 33013KT P6SM SCT040
     FM041700 33018G25KT P6SM BKN035
     FM050000 31005KT P6SM SKC=



000
FTUS43 KABR 041300 AAA
TAFATY
TAF AMD
KATY 041319Z 0413/0512 32006KT P6SM SCT023 OVC030
      TEMPO 0413/0415 3SM -SN OVC015
     FM041700 33017G26KT P6SM BKN035
     FM050000 32011KT P6SM SCT250=



000
FTUS43 KABR 041200 AAB
TAFABR
TAF AMD
KABR 041233Z 0413/0512 26003KT 2SM -SN BKN024 OVC050
     FM041500 33013KT P6SM SCT040
     FM041700 33018G25KT P6SM BKN035
     FM050000 31005KT P6SM SKC=



000
FTUS43 KABR 041200 AAA
TAFABR
TAF AMD
KABR 041214Z 0412/0512 22004KT P6SM -SN OVC045
     FM041500 33013KT P6SM SCT040
     FM041700 33018G25KT P6SM BKN035
     FM050000 31005KT P6SM SKC=



000
FTUS43 KABR 041200 AAA
TAFABR
TAF AMD
KABR 041214Z 0412/0512 22004KT P6SM -SN OVC045
     FM041500 33013KT P6SM SCT040
     FM041700 33018G25KT P6SM BKN035
     FM050000 31005KT P6SM SKC=



000
FTUS43 KABR 041100
TAFABR
TAF
KABR 041120Z 0412/0512 VRB05KT 2SM -SN OVC018
      TEMPO 0412/0414 P6SM -SN OVC040
     FM041500 33013KT P6SM SCT040
     FM041700 33018G25KT P6SM BKN035
     FM050000 31005KT P6SM SKC=



000
FTUS43 KABR 041100
TAFPIR
TAF
KPIR 041120Z 0412/0512 26005KT P6SM SCT040
     FM041500 32013G23KT P6SM BKN035
     FM050000 09003KT P6SM SKC=



000
FTUS43 KABR 041100
TAFMBG
TAF
KMBG 041120Z 0412/0512 31013KT P6SM FEW045 BKN060
     FM041500 33013G23KT P6SM BKN035
     FM050000 11005KT P6SM FEW250=



000
FTUS43 KABR 041100
TAFATY
TAF
KATY 041120Z 0412/0512 25006KT P6SM BKN040
      TEMPO 0412/0415 1 1/2SM -SN OVC015
     FM041700 33017G26KT P6SM BKN035
     FM050000 32011KT P6SM SCT250=



000
FTUS43 KABR 041000 CCA
TAFATY
TAF COR
KATY 041057Z 0411/0506 25006KT P6SM BKN040
      TEMPO 0411/0414 1SM -SN OVC015
     FM041600 33017G26KT P6SM BKN025
     FM050100 VRB03KT P6SM SKC=



000
FTUS43 KABR 041000 AAB
TAFABR
TAF AMD
KABR 041057Z 0411/0506 VRB05KT P6SM OVC045
      TEMPO 0411/0413 1SM -SN OVC018
     FM041600 33017G25KT P6SM BKN030
     FM050100 VRB03KT P6SM SKC=



000
FTUS43 KABR 041000 AAB
TAFABR
TAF AMD
KABR 041057Z 0411/0506 VRB05KT P6SM OVC045
      TEMPO 0411/0413 1SM -SN OVC018
     FM041600 33017G25KT P6SM BKN030
     FM050100 VRB03KT P6SM SKC=



000
FTUS43 KABR 041000 CCA
TAFATY
TAF COR
KATY 041057Z 0411/0506 25006KT P6SM BKN040
      TEMPO 0411/0414 1SM -SN OVC015
     FM041600 33017G26KT P6SM BKN025
     FM050100 VRB03KT P6SM SKC=



000
FTUS43 KABR 041000 AAA
TAFMBG
TAF AMD
KMBG 041040Z 0411/0506 31013KT P6SM FEW045 BKN060
     FM041500 33014G23KT P6SM BKN035
     FM050100 VRB03KT P6SM SKC=



000
FTUS43 KABR 041000 AAA
TAFABR
TAF AMD
KABR 041039Z 0411/0506 VRB05KT P6SM OVC045
      TEMPO 0411/0413 2SM -SN OVC025
     FM041600 33017G25KT P6SM BKN030
     FM050100 VRB03KT P6SM SKC=



000
FTUS43 KABR 041000 AAA
TAFATY
TAF AMD
KATY 041039Z 0411/0506 25006KT P6SM BKN040
      TEMPO 0411/0414 2SM -SN OVC020
     FM041600 33017G26KT P6SM BKN025
     FM050100 VRB03KT P6SM SKC=



000
FTUS43 KABR 040500
TAFATY
TAF
KATY 040533Z 0406/0506 27006KT P6SM SKC
      TEMPO 0411/0414 BKN050
     FM041600 33017G26KT P6SM BKN025
     FM050100 VRB03KT P6SM SKC=



000
FTUS43 KABR 040500
TAFPIR
TAF
KPIR 040533Z 0406/0506 26005KT P6SM SKC
      TEMPO 0409/0413 BKN050
     FM041600 32013G22KT P6SM SCT040
     FM050100 VRB03KT P6SM SKC=



000
FTUS43 KABR 040500
TAFMBG
TAF
KMBG 040533Z 0406/0506 25005KT P6SM SKC
      TEMPO 0407/0410 P6SM -SN BKN040
     FM041500 33014G23KT P6SM BKN035
     FM050100 VRB03KT P6SM SKC=



000
FTUS43 KABR 040500
TAFABR
TAF
KABR 040533Z 0406/0506 27006KT P6SM SKC
      TEMPO 0409/0413 BKN050
     FM041600 33017G25KT P6SM BKN030
     FM050100 VRB03KT P6SM SKC=



000
FTUS43 KABR 040500
TAFATY
TAF
KATY 040533Z 0406/0506 27006KT P6SM SKC
      TEMPO 0411/0414 BKN050
     FM041600 33017G26KT P6SM BKN025
     FM050100 VRB03KT P6SM SKC=



000
FTUS43 KABR 040500
TAFMBG
TAF
KMBG 040533Z 0406/0506 25005KT P6SM SKC
      TEMPO 0407/0410 P6SM -SN BKN040
     FM041500 33014G23KT P6SM BKN035
     FM050100 VRB03KT P6SM SKC=



000
FTUS43 KABR 040500
TAFPIR
TAF
KPIR 040533Z 0406/0506 26005KT P6SM SKC
      TEMPO 0409/0413 BKN050
     FM041600 32013G22KT P6SM SCT040
     FM050100 VRB03KT P6SM SKC=



000
FTUS43 KABR 040500
TAFABR
TAF
KABR 040533Z 0406/0506 27006KT P6SM SKC
      TEMPO 0409/0413 BKN050
     FM041600 33017G25KT P6SM BKN030
     FM050100 VRB03KT P6SM SKC=



000
FTUS43 KABR 032300
TAFATY
TAF
KATY 032339Z 0400/0424 32018G26KT P6SM SKC
     FM040200 32011KT P6SM SKC
     FM040400 27006KT P6SM SKC
     FM041600 33017KT P6SM SCT035=



000
FTUS43 KABR 032300
TAFABR
TAF
KABR 032339Z 0400/0424 32016KT P6SM SKC
     FM040200 27006KT P6SM SKC
     FM041600 33015KT P6SM SCT040=



000
FTUS43 KABR 032300
TAFPIR
TAF
KPIR 032339Z 0400/0424 32015KT P6SM SKC
     FM040100 26005KT P6SM SKC
     FM041500 32013KT P6SM SCT040=



000
FTUS43 KABR 032300
TAFMBG
TAF
KMBG 032339Z 0400/0424 32015KT P6SM SKC
     FM040100 25005KT P6SM SKC
     FM041500 33014KT P6SM SCT035=



000
FTUS43 KABR 032300
TAFABR
TAF
KABR 032339Z 0400/0424 32016KT P6SM SKC
     FM040200 27006KT P6SM SKC
     FM041600 33015KT P6SM SCT040=



000
FTUS43 KABR 032300
TAFATY
TAF
KATY 032339Z 0400/0424 32018G26KT P6SM SKC
     FM040200 32011KT P6SM SKC
     FM040400 27006KT P6SM SKC
     FM041600 33017KT P6SM SCT035=



000
FTUS43 KABR 032300
TAFPIR
TAF
KPIR 032339Z 0400/0424 32015KT P6SM SKC
     FM040100 26005KT P6SM SKC
     FM041500 32013KT P6SM SCT040=



000
FTUS43 KABR 032300
TAFMBG
TAF
KMBG 032339Z 0400/0424 32015KT P6SM SKC
     FM040100 25005KT P6SM SKC
     FM041500 33014KT P6SM SCT035=



000
FTUS43 KABR 032100 AAA
TAFABR
TAF AMD
KABR 032118Z 0321/0418 32025G30KT P6SM BKN035
     FM032200 32015G25KT P6SM OVC060
     FM040100 32010KT P6SM BKN040
     FM041700 33015G22KT P6SM SCT060=



000
FTUS43 KABR 032000 AAA
TAFPIR
TAF AMD
KPIR 032012Z 0320/0418 32020KT P6SM SCT060 OVC070
     FM032100 32017G25KT P6SM BKN080
     FM040000 33009KT P6SM OVC080
     FM041100 31013G18KT P6SM OVC025=



000
FTUS43 KABR 032000 AAA
TAFPIR
TAF AMD
KPIR 032012Z 0320/0418 32020KT P6SM SCT060 OVC070
     FM032100 32017G25KT P6SM BKN080
     FM040000 33009KT P6SM OVC080
     FM041100 31013G18KT P6SM OVC025=



000
FTUS43 KABR 032000 AAB
TAFATY
TAF AMD
KATY 032012Z 0320/0418 32025G35KT 3SM BLSN OVC015
     FM032200 32022G30KT 3SM BLSN OVC060
     FM040000 32015G25KT 5SM BLSN BKN040
     FM040200 31012KT P6SM SKC
     FM040800 29007KT P6SM SKC
     FM041700 32015G22KT P6SM BKN050=



000
FTUS43 KABR 032000 AAB
TAFATY
TAF AMD
KATY 032012Z 0320/0418 32025G35KT 3SM BLSN OVC015
     FM032200 32022G30KT 3SM BLSN OVC060
     FM040000 32015G25KT 5SM BLSN BKN040
     FM040200 31012KT P6SM SKC
     FM040800 29007KT P6SM SKC
     FM041700 32015G22KT P6SM BKN050=



000
FTUS43 KABR 031800 AAA
TAFATY
TAF AMD
KATY 031849Z 0319/0418 32025G35KT 3SM BLSN OVC015
      TEMPO 0319/0322 1SM BLSN OVC060
     FM032200 32022G30KT 3SM BLSN OVC060
     FM040000 32015G25KT 5SM BLSN BKN040
     FM040200 31012KT P6SM SKC
     FM040800 29007KT P6SM SKC
     FM041700 32015G22KT P6SM BKN050=



000
FTUS43 KABR 031800 AAA
TAFATY
TAF AMD
KATY 031849Z 0319/0418 32025G35KT 3SM BLSN OVC015
      TEMPO 0319/0322 1SM BLSN OVC060
     FM032200 32022G30KT 3SM BLSN OVC060
     FM040000 32015G25KT 5SM BLSN BKN040
     FM040200 31012KT P6SM SKC
     FM040800 29007KT P6SM SKC
     FM041700 32015G22KT P6SM BKN050=



000
FTUS43 KABR 031800 AAA
TAFABR
TAF AMD
KABR 031848Z 0319/0418 32025G35KT 4SM BLSN SCT025
     FM032200 32015G25KT 6SM BLSN OVC060
     FM040100 32010KT P6SM BKN040
     FM041700 33015G22KT P6SM SCT060=



000
FTUS43 KABR 031800 AAA
TAFABR
TAF AMD
KABR 031848Z 0319/0418 32025G35KT 4SM BLSN SCT025
     FM032200 32015G25KT 6SM BLSN OVC060
     FM040100 32010KT P6SM BKN040
     FM041700 33015G22KT P6SM SCT060=



000
FTUS43 KABR 031700
TAFMBG
TAF
KMBG 031727Z 0318/0418 34023G33KT P6SM SKC
     FM032100 33018G25KT P6SM OVC060
     FM040000 33010KT P6SM SKC
     FM041400 33015KT P6SM SKC=



000
FTUS43 KABR 031700
TAFPIR
TAF
KPIR 031727Z 0318/0418 32025G35KT P6SM SCT060 OVC070
     FM032100 32017G25KT P6SM BKN080
     FM040000 33009KT P6SM OVC080
     FM041100 31013G18KT P6SM OVC025=



000
FTUS43 KABR 031700
TAFATY
TAF
KATY 031727Z 0318/0418 32025G35KT 2SM BLSN OVC015
      TEMPO 0318/0322 1SM BLSN OVC060
     FM032200 32022G30KT 3SM BLSN OVC060
     FM040000 32015G25KT 5SM BLSN BKN040
     FM040200 31012KT P6SM SKC
     FM040800 29007KT P6SM SKC
     FM041700 32015G22KT P6SM BKN050=



000
FTUS43 KABR 031700
TAFABR
TAF
KABR 031727Z 0318/0418 32025G35KT 1SM BLSN OVC060
     FM032200 32015G25KT 6SM BLSN OVC060
     FM040100 32010KT P6SM BKN040
     FM041700 33015G22KT P6SM SCT060=



000
FTUS43 KABR 031700
TAFMBG
TAF
KMBG 031727Z 0318/0418 34023G33KT P6SM SKC
     FM032100 33018G25KT P6SM OVC060
     FM040000 33010KT P6SM SKC
     FM041400 33015KT P6SM SKC=



000
FTUS43 KABR 031700
TAFPIR
TAF
KPIR 031727Z 0318/0418 32025G35KT P6SM SCT060 OVC070
     FM032100 32017G25KT P6SM BKN080
     FM040000 33009KT P6SM OVC080
     FM041100 31013G18KT P6SM OVC025=



000
FTUS43 KABR 031700
TAFATY
TAF
KATY 031727Z 0318/0418 32025G35KT 2SM BLSN OVC015
      TEMPO 0318/0322 1SM BLSN OVC060
     FM032200 32022G30KT 3SM BLSN OVC060
     FM040000 32015G25KT 5SM BLSN BKN040
     FM040200 31012KT P6SM SKC
     FM040800 29007KT P6SM SKC
     FM041700 32015G22KT P6SM BKN050=



000
FTUS43 KABR 031700
TAFABR
TAF
KABR 031727Z 0318/0418 32025G35KT 1SM BLSN OVC060
     FM032200 32015G25KT 6SM BLSN OVC060
     FM040100 32010KT P6SM BKN040
     FM041700 33015G22KT P6SM SCT060=



000
FTUS43 KABR 031700 AAD
TAFPIR
TAF AMD
KPIR 031715Z 0317/0412 32025G35KT P6SM SCT025 OVC080
     FM032100 32017KT P6SM BKN040=



000
FTUS43 KABR 031700 AAD
TAFPIR
TAF AMD
KPIR 031715Z 0317/0412 32025G35KT P6SM SCT025 OVC080
     FM032100 32017KT P6SM BKN040=



000
FTUS43 KABR 031700 AAB
TAFABR
TAF AMD
KABR 031714Z 0317/0412 32023G31KT 1SM BLSN OVC060
     FM032200 32015G25KT 6SM BLSN OVC060
     FM040000 32010KT P6SM BKN040=



000
FTUS43 KABR 031700 AAB
TAFABR
TAF AMD
KABR 031714Z 0317/0412 32023G31KT 1SM BLSN OVC060
     FM032200 32015G25KT 6SM BLSN OVC060
     FM040000 32010KT P6SM BKN040=



000
FTUS43 KABR 031500 AAB
TAFATY
TAF AMD
KATY 031539Z 0316/0412 34024G30KT 1SM -SN BR BKN015
      TEMPO 0316/0318 2SM -SN BLSN
     FM031800 32020G30KT 6SM BLSN OVC015
     FM040000 32017KT P6SM BKN040=



000
FTUS43 KABR 031500 AAB
TAFATY
TAF AMD
KATY 031539Z 0316/0412 34024G30KT 1SM -SN BR BKN015
      TEMPO 0316/0318 2SM -SN BLSN
     FM031800 32020G30KT 6SM BLSN OVC015
     FM040000 32017KT P6SM BKN040=



000
FTUS43 KABR 031500 AAC
TAFPIR
TAF AMD
KPIR 031538Z 0316/0412 34022G30KT P6SM SCT025 OVC080
      TEMPO 0316/0318 3SM BLSN
     FM032100 32017KT P6SM BKN040=



000
FTUS43 KABR 031500 AAC
TAFPIR
TAF AMD
KPIR 031538Z 0316/0412 34022G30KT P6SM SCT025 OVC080
      TEMPO 0316/0318 3SM BLSN
     FM032100 32017KT P6SM BKN040=



000
FTUS43 KABR 031500 AAA
TAFATY
TAF AMD
KATY 031534Z 0316/0412 34024G30KT 2SM -SN BR BKN025
      TEMPO 0316/0318 1SM -SN BLSN
     FM031800 32020G30KT 6SM BLSN OVC015
     FM040000 32017KT P6SM BKN040=



000
FTUS43 KABR 031500 AAA
TAFATY
TAF AMD
KATY 031534Z 0316/0412 34024G30KT 2SM -SN BR BKN025
      TEMPO 0316/0318 1SM -SN BLSN
     FM031800 32020G30KT 6SM BLSN OVC015
     FM040000 32017KT P6SM BKN040=



000
FTUS43 KABR 031500 AAA
TAFABR
TAF AMD
KABR 031513Z 0315/0412 34023G31KT 3SM HZ OVC028
      TEMPO 0315/0317 1SM -SN BLSN OVC009
     FM031700 32025G33KT 6SM BLSN OVC060
     FM032100 31015G25KT P6SM BKN040=



000
FTUS43 KABR 031500 AAA
TAFABR
TAF AMD
KABR 031513Z 0315/0412 34023G31KT 3SM HZ OVC028
      TEMPO 0315/0317 1SM -SN BLSN OVC009
     FM031700 32025G33KT 6SM BLSN OVC060
     FM032100 31015G25KT P6SM BKN040=



000
FTUS43 KABR 031400 AAB
TAFPIR
TAF AMD
KPIR 031433Z 0315/0412 34021G32KT 1SM BLSN OVC060
     FM031500 33025G35KT 2SM BLSN OVC040
     FM032100 32017KT P6SM BKN040=



000
FTUS43 KABR 031300 AAA
TAFPIR
TAF AMD
KPIR 031336Z 0314/0412 34021G32KT 3SM BLSN OVC040
     FM031500 33025G35KT 3SM BLSN OVC015
     FM032100 32017KT P6SM BKN040=



000
FTUS43 KABR 031300 AAA
TAFABR
TAF AMD
KABR 031323Z 0313/0412 34023G31KT 3SM HZ OVC028
      TEMPO 0313/0315 1SM -SN BLSN OVC009
     FM031500 32025G33KT 6SM BLSN OVC025
     FM032100 31015G25KT P6SM BKN040=



000
FTUS43 KABR 031200 AAA
TAFMBG
TAF AMD
KMBG 031236Z 0313/0412 34023G33KT P6SM OVC050
     FM032100 33018KT P6SM BKN025
     FM040000 33010KT P6SM SKC=



000
FTUS43 KABR 031200 AAA
TAFMBG
TAF AMD
KMBG 031236Z 0313/0412 34023G33KT P6SM OVC050
     FM032100 33018KT P6SM BKN025
     FM040000 33010KT P6SM SKC=



000
FTUS43 KABR 031100
TAFABR
TAF
KABR 031130Z 0312/0412 35026G32KT 2SM -SN VV016
      TEMPO 0312/0315 3/4SM -SN BLSN OVC009
     FM031500 32025G33KT 6SM BLSN OVC025
     FM032100 31015G25KT P6SM BKN040=



000
FTUS43 KABR 031100
TAFATY
TAF
KATY 031130Z 0312/0412 20006KT 2SM -SN BR BKN015
      TEMPO 0312/0314 1/2SM SN BLSN VV007
     FM031400 33028G38KT 1/2SM SN BLSN OVC007
     FM031800 32020G30KT 6SM BLSN OVC015
     FM040000 32017KT P6SM BKN040=



000
FTUS43 KABR 031100
TAFABR
TAF
KABR 031130Z 0312/0412 35026G32KT 2SM -SN VV016
      TEMPO 0312/0315 3/4SM -SN BLSN OVC009
     FM031500 32025G33KT 6SM BLSN OVC025
     FM032100 31015G25KT P6SM BKN040=



000
FTUS43 KABR 031100
TAFPIR
TAF
KPIR 031130Z 0312/0412 35029G42KT 2SM -SN OVC030
      TEMPO 0312/0315 1/2SM -SN BLSN VV010
     FM031500 33025G35KT 3SM BLSN OVC015
     FM032100 32017KT P6SM BKN040=



000
FTUS43 KABR 031100
TAFMBG
TAF
KMBG 031130Z 0312/0412 34022G30KT 3SM -SN SCT018 OVC025
     FM031500 34022KT P6SM -SN OVC015
     FM032100 33018KT P6SM BKN025
     FM040000 33010KT P6SM SKC=



000
FTUS43 KABR 031100
TAFMBG
TAF
KMBG 031130Z 0312/0412 34022G30KT 3SM -SN SCT018 OVC025
     FM031500 34022KT P6SM -SN OVC015
     FM032100 33018KT P6SM BKN025
     FM040000 33010KT P6SM SKC=



000
FTUS43 KABR 031100
TAFPIR
TAF
KPIR 031130Z 0312/0412 35029G42KT 2SM -SN OVC030
      TEMPO 0312/0315 1/2SM -SN BLSN VV010
     FM031500 33025G35KT 3SM BLSN OVC015
     FM032100 32017KT P6SM BKN040=



000
FTUS43 KABR 031100
TAFATY
TAF
KATY 031130Z 0312/0412 20006KT 2SM -SN BR BKN015
      TEMPO 0312/0314 1/2SM SN BLSN VV007
     FM031400 33028G38KT 1/2SM SN BLSN OVC007
     FM031800 32020G30KT 6SM BLSN OVC015
     FM040000 32017KT P6SM BKN040=



000
FTUS43 KABR 030900 AAB
TAFMBG
TAF AMD
KMBG 030956Z 0310/0406 35020G30KT P6SM SCT020 OVC040
     FM031400 33026G35KT P6SM OVC025
     FM031800 33015KT P6SM BKN040=



000
FTUS43 KABR 030900 AAB
TAFMBG
TAF AMD
KMBG 030956Z 0310/0406 35020G30KT P6SM SCT020 OVC040
     FM031400 33026G35KT P6SM OVC025
     FM031800 33015KT P6SM BKN040=



000
FTUS43 KABR 030900 AAC
TAFABR
TAF AMD
KABR 030955Z 0310/0406 20011KT 2SM -SN OVC020
      TEMPO 0310/0313 1/2SM SN OVC009
     FM031600 32020G30KT 3SM BLSN OVC025
     FM032100 31015KT P6SM BKN040=



000
FTUS43 KABR 030900 AAC
TAFABR
TAF AMD
KABR 030955Z 0310/0406 20011KT 2SM -SN OVC020
      TEMPO 0310/0313 1/2SM SN OVC009
     FM031600 32020G30KT 3SM BLSN OVC025
     FM032100 31015KT P6SM BKN040=



000
FTUS43 KABR 030900 AAB
TAFATY
TAF AMD
KATY 030930Z 0310/0406 19006KT 2SM -SN BR BKN035 OVC070
      TEMPO 0310/0313 1/2SM SN BLSN OVC010
     FM031300 33028G38KT 1/2SM SN BLSN OVC007
     FM031800 32020G30KT 1SM BLSN OVC015
     FM040000 32017KT P6SM BKN040=



000
FTUS43 KABR 030900 AAB
TAFATY
TAF AMD
KATY 030930Z 0310/0406 19006KT 2SM -SN BR BKN035 OVC070
      TEMPO 0310/0313 1/2SM SN BLSN OVC010
     FM031300 33028G38KT 1/2SM SN BLSN OVC007
     FM031800 32020G30KT 1SM BLSN OVC015
     FM040000 32017KT P6SM BKN040=



000
FTUS43 KABR 030900 AAA
TAFPIR
TAF AMD
KPIR 030910Z 0309/0406 36028G38KT 1SM -SN BR BLSN SCT005 OVC012
      TEMPO 0309/0312 1/4SM +SN BLSN VV002
     FM031600 33025G35KT 1SM BLSN OVC015
     FM032100 32017KT P6SM BKN040=



000
FTUS43 KABR 030900 AAB
TAFABR
TAF AMD
KABR 030906Z 0309/0406 20011KT 1 1/2SM -SN OVC027
      TEMPO 0309/0313 1/4SM +SN OVC010
     FM031600 32020G30KT 3SM BLSN OVC025
     FM032100 31015KT P6SM BKN040=



000
FTUS43 KABR 030900 AAB
TAFABR
TAF AMD
KABR 030906Z 0309/0406 20011KT 1 1/2SM -SN OVC027
      TEMPO 0309/0313 1/4SM +SN OVC010
     FM031600 32020G30KT 3SM BLSN OVC025
     FM032100 31015KT P6SM BKN040=



000
FTUS43 KABR 030800 AAA
TAFATY
TAF AMD
KATY 030854Z 0309/0406 17010KT P6SM SCT026 OVC070
     FM031000 30016G27KT 2SM -SN BLSN OVC010
     FM031300 33028G38KT 1/4SM SN BLSN OVC007
     FM031800 32020G30KT 1SM BLSN OVC015
     FM040000 32017KT P6SM BKN040=



000
FTUS43 KABR 030800 AAA
TAFATY
TAF AMD
KATY 030854Z 0309/0406 17010KT P6SM SCT026 OVC070
     FM031000 30016G27KT 2SM -SN BLSN OVC010
     FM031300 33028G38KT 1/4SM SN BLSN OVC007
     FM031800 32020G30KT 1SM BLSN OVC015
     FM040000 32017KT P6SM BKN040=



000
FTUS43 KABR 030800 AAA
TAFMBG
TAF AMD
KMBG 030818Z 0308/0406 35024G33KT P6SM -SN BKN015 OVC100
      TEMPO 0309/0313 3SM -SN
     FM031400 33026G35KT P6SM OVC025
     FM031800 33015KT P6SM BKN040=



000
FTUS43 KABR 030800 AAA
TAFMBG
TAF AMD
KMBG 030818Z 0308/0406 35024G33KT P6SM -SN BKN015 OVC100
      TEMPO 0309/0313 3SM -SN
     FM031400 33026G35KT P6SM OVC025
     FM031800 33015KT P6SM BKN040=



000
FTUS43 KABR 030800 AAA
TAFABR
TAF AMD
KABR 030817Z 0308/0406 18012KT P6SM BKN070 OVC090
     FM030900 33014KT 1SM -SN OVC015
     FM031100 33028G37KT 1/2SM -SN BLSN OVC010
     FM031600 32020G30KT 3SM BLSN OVC025
     FM032100 31015KT P6SM BKN040=



000
FTUS43 KABR 030500
TAFABR
TAF
KABR 030538Z 0306/0406 18014KT P6SM OVC070
     FM030700 19011KT 3SM -SN OVC030
     FM030900 33014KT 1SM -SN OVC015
     FM031100 33028G37KT 1/2SM -SN BLSN OVC010
     FM031600 32020G30KT 3SM BLSN OVC025
     FM032100 31015KT P6SM BKN040=



000
FTUS43 KABR 030500
TAFMBG
TAF
KMBG 030538Z 0306/0406 33010KT P6SM OVC080
     FM030800 34020G30KT 3SM -SN OVC030
     FM031400 33026G35KT P6SM OVC025
     FM031800 33015KT P6SM BKN040=



000
FTUS43 KABR 030500
TAFATY
TAF
KATY 030538Z 0306/0406 17017KT P6SM OVC070
     FM030800 19010KT 2SM -SN OVC030
     FM031000 30016G27KT 3/4SM -SN BLSN OVC010
     FM031300 33028G38KT 1/4SM SN BLSN OVC007
     FM031800 32020G30KT 1SM BLSN OVC015
     FM040000 32017KT P6SM BKN040=



000
FTUS43 KABR 030500
TAFPIR
TAF
KPIR 030538Z 0306/0406 34015KT 3SM -SN OVC025
     FM030800 34020G30KT 1/2SM SN BLSN OVC010
     FM031000 34030G40KT 1/4SM SN BLSN OVC007
     FM031600 33025G35KT 1SM BLSN OVC015
     FM032100 32017KT P6SM BKN040=



000
FTUS43 KABR 030500
TAFABR
TAF
KABR 030538Z 0306/0406 18014KT P6SM OVC070
     FM030700 19011KT 3SM -SN OVC030
     FM030900 33014KT 1SM -SN OVC015
     FM031100 33028G37KT 1/2SM -SN BLSN OVC010
     FM031600 32020G30KT 3SM BLSN OVC025
     FM032100 31015KT P6SM BKN040=



000
FTUS43 KABR 030500
TAFPIR
TAF
KPIR 030538Z 0306/0406 34015KT 3SM -SN OVC025
     FM030800 34020G30KT 1/2SM SN BLSN OVC010
     FM031000 34030G40KT 1/4SM SN BLSN OVC007
     FM031600 33025G35KT 1SM BLSN OVC015
     FM032100 32017KT P6SM BKN040=



000
FTUS43 KABR 030500
TAFMBG
TAF
KMBG 030538Z 0306/0406 33010KT P6SM OVC080
     FM030800 34020G30KT 3SM -SN OVC030
     FM031400 33026G35KT P6SM OVC025
     FM031800 33015KT P6SM BKN040=



000
FTUS43 KABR 030500
TAFATY
TAF
KATY 030538Z 0306/0406 17017KT P6SM OVC070
     FM030800 19010KT 2SM -SN OVC030
     FM031000 30016G27KT 3/4SM -SN BLSN OVC010
     FM031300 33028G38KT 1/4SM SN BLSN OVC007
     FM031800 32020G30KT 1SM BLSN OVC015
     FM040000 32017KT P6SM BKN040=



000
FTUS43 KABR 030200 AAA
TAFPIR
TAF AMD
KPIR 030218Z 0302/0324 14010KT P6SM BKN080
     FM030600 34015KT 3SM -SN OVC025
     FM030800 34020G30KT 1/2SM SN BLSN OVC010
     FM031000 34030G40KT 1/4SM BLSN OVC007
     FM031800 33025G35KT 1SM BLSN OVC015=



000
FTUS43 KABR 030200 AAA
TAFPIR
TAF AMD
KPIR 030218Z 0302/0324 14010KT P6SM BKN080
     FM030600 34015KT 3SM -SN OVC025
     FM030800 34020G30KT 1/2SM SN BLSN OVC010
     FM031000 34030G40KT 1/4SM BLSN OVC007
     FM031800 33025G35KT 1SM BLSN OVC015=



000
FTUS43 KABR 022300
TAFPIR
TAF
KPIR 022325Z 0300/0324 18014G23KT P6SM BKN080
     FM030500 34015KT 3SM -SN OVC025
     FM030700 34020G30KT 1/2SM SN BLSN OVC010
     FM031000 34030G40KT 1/4SM BLSN OVC007
     FM031800 33025G35KT 1SM BLSN OVC015=



000
FTUS43 KABR 022300
TAFABR
TAF
KABR 022325Z 0300/0324 17019G27KT P6SM BKN080
     FM030700 19011KT 3SM -SN OVC030
     FM030900 33014KT 1SM -SN OVC015
     FM031100 33028G37KT 3/4SM -SN BLSN OVC010
     FM031800 32020G30KT 3SM BLSN OVC025=



000
FTUS43 KABR 022300
TAFATY
TAF
KATY 022325Z 0300/0324 16020G28KT P6SM BKN080
     FM030900 19010KT 2SM -SN OVC020
     FM031100 30016G27KT 3/4SM -SN BLSN OVC010
     FM031400 33028G38KT 1/4SM SN BLSN OVC007
     FM032200 32020G30KT 1SM BLSN OVC015=



000
FTUS43 KABR 022300
TAFMBG
TAF
KMBG 022325Z 0300/0324 16010KT P6SM BKN080
     FM030700 34020G30KT 3SM -SN BLSN OVC030
     FM031400 33026G35KT P6SM OVC025=



000
FTUS43 KABR 022100 AAA
TAFMBG
TAF AMD
KMBG 022157Z 0222/0318 19014G21KT P6SM SCT200
     FM030000 15007KT P6SM OVC100
     FM030700 34020G30KT 3SM -SN BLSN OVC020
     FM031100 33026G35KT 6SM BLSN OVC025
     FM031500 32023G31KT P6SM BKN025=



000
FTUS43 KABR 022100 AAA
TAFMBG
TAF AMD
KMBG 022157Z 0222/0318 19014G21KT P6SM SCT200
     FM030000 15007KT P6SM OVC100
     FM030700 34020G30KT 3SM -SN BLSN OVC020
     FM031100 33026G35KT 6SM BLSN OVC025
     FM031500 32023G31KT P6SM BKN025=



000
FTUS43 KABR 022000 AAA
TAFATY
TAF AMD
KATY 022040Z 0221/0318 16016G24KT P6SM OVC090
     FM030900 19016KT 6SM -SN OVC020
     FM031100 30016G23KT 3SM -SN OVC020
     FM031400 33020G30KT 1/4SM SN BLSN OVC015=



000
FTUS43 KABR 022000 AAA
TAFATY
TAF AMD
KATY 022040Z 0221/0318 16016G24KT P6SM OVC090
     FM030900 19016KT 6SM -SN OVC020
     FM031100 30016G23KT 3SM -SN OVC020
     FM031400 33020G30KT 1/4SM SN BLSN OVC015=



000
FTUS43 KABR 021700
TAFABR
TAF
KABR 021738Z 0218/0318 17022G29KT P6SM SKC
     FM021900 16023G30KT P6SM BKN100
     FM030800 19011KT 6SM -SN BKN025
     FM031000 29012KT 3SM -SN OVC020
     FM031300 33020G30KT 1/2SM SN BLSN OVC020=



000
FTUS43 KABR 021700
TAFPIR
TAF
KPIR 021738Z 0218/0318 15016G24KT P6SM FEW090
     FM030500 34015KT 3SM -SN OVC025
     FM030800 34020G30KT 1/2SM SN BLSN OVC015
     FM031200 34030G37KT 1/4SM BLSN OVC010
     FM031600 33024G33KT 1/2SM BLSN OVC015=



000
FTUS43 KABR 021700
TAFMBG
TAF
KMBG 021738Z 0218/0318 16021G29KT P6SM SKC
     FM030000 15007KT P6SM OVC100
     FM030700 34020G30KT 3SM -SN BLSN OVC020
     FM031100 33026G35KT 6SM BLSN OVC025
     FM031500 32023G31KT P6SM BKN025=



000
FTUS43 KABR 021700
TAFATY
TAF
KATY 021738Z 0218/0318 16014KT P6SM FEW100
     FM022100 16019G26KT P6SM OVC100
     FM030900 19016KT 6SM -SN OVC020
     FM031100 30016G23KT 3SM -SN OVC020
     FM031400 33020G30KT 1/4SM SN BLSN OVC015=



000
FTUS43 KABR 021700
TAFATY
TAF
KATY 021738Z 0218/0318 16014KT P6SM FEW100
     FM022100 16019G26KT P6SM OVC100
     FM030900 19016KT 6SM -SN OVC020
     FM031100 30016G23KT 3SM -SN OVC020
     FM031400 33020G30KT 1/4SM SN BLSN OVC015=



000
FTUS43 KABR 021700
TAFMBG
TAF
KMBG 021738Z 0218/0318 16021G29KT P6SM SKC
     FM030000 15007KT P6SM OVC100
     FM030700 34020G30KT 3SM -SN BLSN OVC020
     FM031100 33026G35KT 6SM BLSN OVC025
     FM031500 32023G31KT P6SM BKN025=



000
FTUS43 KABR 021700
TAFPIR
TAF
KPIR 021738Z 0218/0318 15016G24KT P6SM FEW090
     FM030500 34015KT 3SM -SN OVC025
     FM030800 34020G30KT 1/2SM SN BLSN OVC015
     FM031200 34030G37KT 1/4SM BLSN OVC010
     FM031600 33024G33KT 1/2SM BLSN OVC015=



000
FTUS43 KABR 021700
TAFABR
TAF
KABR 021738Z 0218/0318 17022G29KT P6SM SKC
     FM021900 16023G30KT P6SM BKN100
     FM030800 19011KT 6SM -SN BKN025
     FM031000 29012KT 3SM -SN OVC020
     FM031300 33020G30KT 1/2SM SN BLSN OVC020=



000
FTUS43 KABR 021600 AAC
TAFABR
TAF AMD
KABR 021657Z 0217/0312 17022G29KT P6SM SKC
     FM021900 16023G30KT P6SM BKN100
     FM030600 17011KT P6SM -SN BKN025=



000
FTUS43 KABR 021600 AAC
TAFABR
TAF AMD
KABR 021657Z 0217/0312 17022G29KT P6SM SKC
     FM021900 16023G30KT P6SM BKN100
     FM030600 17011KT P6SM -SN BKN025=



000
FTUS43 KABR 021600 AAA
TAFPIR
TAF AMD
KPIR 021606Z 0216/0312 15016KT P6SM BKN080
     FM021800 16018G25KT P6SM BKN060
     FM030600 01014KT 3SM -SN OVC025=



000
FTUS43 KABR 021600 AAA
TAFPIR
TAF AMD
KPIR 021606Z 0216/0312 15016KT P6SM BKN080
     FM021800 16018G25KT P6SM BKN060
     FM030600 01014KT 3SM -SN OVC025=



000
FTUS43 KABR 021400 AAB
TAFABR
TAF AMD
KABR 021420Z 0214/0312 16005KT 6SM HZ SCT002
     FM021445 16009KT P6SM SKC
     FM021800 16017G25KT P6SM BKN200
     FM030600 17011KT P6SM -SN BKN025=



000
FTUS43 KABR 021400 AAB
TAFABR
TAF AMD
KABR 021420Z 0214/0312 16005KT 6SM HZ SCT002
     FM021445 16009KT P6SM SKC
     FM021800 16017G25KT P6SM BKN200
     FM030600 17011KT P6SM -SN BKN025=



000
FTUS43 KABR 021300 AAA
TAFABR
TAF AMD
KABR 021353Z 0214/0312 17006KT 3SM BR OVC002
     FM021500 16009KT P6SM SKC
     FM021800 16017G25KT P6SM BKN200
     FM030600 17011KT P6SM -SN BKN025=



000
FTUS43 KABR 021300 AAA
TAFABR
TAF AMD
KABR 021353Z 0214/0312 17006KT 3SM BR OVC002
     FM021500 16009KT P6SM SKC
     FM021800 16017G25KT P6SM BKN200
     FM030600 17011KT P6SM -SN BKN025=



000
FTUS43 KABR 021200 AAA
TAFABR
TAF AMD
KABR 021234Z 0213/0312 17004KT 2SM BR SCT002
      TEMPO 0213/0215 1/4SM FZFG VV002
     FM021500 16009KT P6SM SKC
     FM021800 16017G25KT P6SM BKN200
     FM030600 17011KT P6SM -SN BKN025=



000
FTUS43 KABR 021100
TAFATY
TAF
KATY 021120Z 0212/0312 16004KT P6SM SCT200
     FM021800 16014KT P6SM SCT250
     FM022100 16018G24KT P6SM -SN OVC100
     FM030300 17016KT P6SM OVC020=



000
FTUS43 KABR 021100
TAFABR
TAF
KABR 021120Z 0212/0312 20004KT 1/4SM FZFG VV002
      TEMPO 0212/0214 3SM BR SCT002
     FM021500 16009KT P6SM SKC
     FM021800 16017G25KT P6SM BKN200
     FM030600 17011KT P6SM -SN BKN025=



000
FTUS43 KABR 021100
TAFMBG
TAF
KMBG 021120Z 0212/0312 13011KT P6SM BKN200
     FM021800 16019G27KT P6SM SKC
     FM030000 12007KT P6SM OVC250
     FM030600 34020G30KT P6SM OVC025=



000
FTUS43 KABR 021100
TAFPIR
TAF
KPIR 021120Z 0212/0312 12010KT P6SM BKN200
     FM021800 16018G25KT P6SM BKN060
     FM030600 01014KT 3SM -SN OVC025=



000
FTUS43 KABR 021100
TAFMBG
TAF
KMBG 021120Z 0212/0312 13011KT P6SM BKN200
     FM021800 16019G27KT P6SM SKC
     FM030000 12007KT P6SM OVC250
     FM030600 34020G30KT P6SM OVC025=



000
FTUS43 KABR 021100
TAFATY
TAF
KATY 021120Z 0212/0312 16004KT P6SM SCT200
     FM021800 16014KT P6SM SCT250
     FM022100 16018G24KT P6SM -SN OVC100
     FM030300 17016KT P6SM OVC020=



000
FTUS43 KABR 021100
TAFABR
TAF
KABR 021120Z 0212/0312 20004KT 1/4SM FZFG VV002
      TEMPO 0212/0214 3SM BR SCT002
     FM021500 16009KT P6SM SKC
     FM021800 16017G25KT P6SM BKN200
     FM030600 17011KT P6SM -SN BKN025=



000
FTUS43 KABR 021100
TAFPIR
TAF
KPIR 021120Z 0212/0312 12010KT P6SM BKN200
     FM021800 16018G25KT P6SM BKN060
     FM030600 01014KT 3SM -SN OVC025=



000
FTUS43 KABR 021100 AAC
TAFABR
TAF AMD
KABR 021107Z 0211/0306 19006KT 3SM BR SCT002
      TEMPO 0211/0214 1/4SM FZFG VV002
     FM021500 16015G23KT P6SM BKN100 OVC250
     FM030100 16013KT P6SM BKN050 OVC090=



000
FTUS43 KABR 021000 AAB
TAFABR
TAF AMD
KABR 021058Z 0211/0306 19006KT 3SM BR SCT001
      TEMPO 0211/0213 1/2SM FZFG BKN001
     FM021500 16015G23KT P6SM BKN100 OVC250
     FM030100 16013KT P6SM BKN050 OVC090=



000
FTUS43 KABR 021000 AAA
TAFABR
TAF AMD
KABR 021050Z 0211/0306 19006KT P6SM SCT001
      TEMPO 0211/0213 BKN001
     FM021700 16015G23KT P6SM BKN100 OVC250
     FM030100 16013KT P6SM BKN050 OVC090=



000
FTUS43 KABR 020500
TAFPIR
TAF
KPIR 020529Z 0206/0306 VRB06KT P6SM SCT250
     FM020900 13010KT P6SM BKN100 OVC250
     FM021600 16017G25KT P6SM SCT060 BKN080 OVC100
     FM030000 13008KT P6SM BKN040 OVC070=



000
FTUS43 KABR 020500
TAFMBG
TAF
KMBG 020529Z 0206/0306 VRB06KT P6SM SKC
     FM021000 14010KT P6SM SCT250
     FM021600 15016G24KT P6SM BKN100 OVC250
     FM030000 12008KT P6SM BKN060 OVC090=



000
FTUS43 KABR 020500
TAFATY
TAF
KATY 020529Z 0206/0306 VRB06KT P6SM SKC
     FM021300 17009KT P6SM SCT250
     FM021800 17016G24KT P6SM BKN100 OVC250
     FM030300 17017KT P6SM BKN050 OVC090=



000
FTUS43 KABR 020500
TAFABR
TAF
KABR 020529Z 0206/0306 VRB06KT P6SM SKC
     FM021300 16009KT P6SM SCT250
     FM021700 16015G23KT P6SM BKN100 OVC250
     FM030100 16013KT P6SM BKN050 OVC090=



000
FTUS43 KABR 020500
TAFPIR
TAF
KPIR 020529Z 0206/0306 VRB06KT P6SM SCT250
     FM020900 13010KT P6SM BKN100 OVC250
     FM021600 16017G25KT P6SM SCT060 BKN080 OVC100
     FM030000 13008KT P6SM BKN040 OVC070=



000
FTUS43 KABR 020500
TAFMBG
TAF
KMBG 020529Z 0206/0306 VRB06KT P6SM SKC
     FM021000 14010KT P6SM SCT250
     FM021600 15016G24KT P6SM BKN100 OVC250
     FM030000 12008KT P6SM BKN060 OVC090=



000
FTUS43 KABR 020500
TAFABR
TAF
KABR 020529Z 0206/0306 VRB06KT P6SM SKC
     FM021300 16009KT P6SM SCT250
     FM021700 16015G23KT P6SM BKN100 OVC250
     FM030100 16013KT P6SM BKN050 OVC090=



000
FTUS43 KABR 020500
TAFATY
TAF
KATY 020529Z 0206/0306 VRB06KT P6SM SKC
     FM021300 17009KT P6SM SCT250
     FM021800 17016G24KT P6SM BKN100 OVC250
     FM030300 17017KT P6SM BKN050 OVC090=



    US Dept of Commerce
    National Oceanic and Atmospheric Administration
    National Weather Service
    1325 East West Highway
    Silver Spring, MD 20910
    Page Author: NWS Internet Services Team
Disclaimer
Information Quality
Credits
Glossary
Privacy Policy
Freedom of Information Act (FOIA)
About Us
Career Opportunities